createdAt,value
2022-10-17T00:00:39.172Z,1.83
2022-10-17T00:03:06.367Z,2.25
2022-10-17T00:05:33.505Z,2.20
2022-10-17T00:08:00.106Z,2.25
2022-10-17T00:10:26.895Z,1.98
2022-10-17T00:12:53.529Z,1.98
2022-10-17T00:15:21.628Z,2.20
2022-10-17T00:17:48.458Z,1.98
2022-10-17T00:20:16.224Z,2.42
2022-10-17T00:22:43.536Z,1.90
2022-10-17T00:25:10.393Z,2.03
2022-10-17T00:27:38.648Z,2.15
2022-10-17T00:30:07.919Z,2.28
2022-10-17T00:32:34.690Z,1.77
2022-10-17T00:35:01.768Z,1.80
2022-10-17T00:37:31.161Z,1.98
2022-10-17T00:39:57.766Z,1.98
2022-10-17T00:42:25.238Z,2.08
2022-10-17T00:45:22.756Z,2.30
2022-10-17T00:47:55.387Z,1.67
2022-10-17T00:50:22.279Z,1.95
2022-10-17T00:52:50.336Z,2.28
2022-10-17T00:55:22.773Z,1.90
2022-10-17T00:57:50.453Z,2.33
2022-10-17T01:00:20.085Z,1.90
2022-10-17T01:02:47.653Z,2.22
2022-10-17T01:05:15.477Z,1.88
2022-10-17T01:07:43.982Z,1.88
2022-10-17T01:10:12.875Z,2.20
2022-10-17T01:13:13.717Z,1.90
2022-10-17T01:16:00.669Z,2.28
2022-10-17T01:19:00.201Z,1.85
2022-10-17T01:21:33.327Z,1.73
2022-10-17T01:24:24.882Z,2.15
2022-10-17T01:27:29.098Z,2.20
2022-10-17T01:30:14.260Z,1.95
2022-10-17T01:32:46.841Z,2.08
2022-10-17T01:35:25.722Z,2.65
2022-10-17T01:38:14.260Z,2.38
2022-10-17T01:40:44.409Z,2.40
2022-10-17T01:43:25.857Z,1.92
2022-10-17T01:46:02.959Z,2.45
2022-10-17T01:48:38.443Z,2.25
2022-10-17T01:51:13.256Z,2.15
2022-10-17T01:53:49.937Z,2.13
2022-10-17T01:56:19.650Z,2.15
2022-10-17T01:58:55.378Z,1.83
2022-10-17T02:01:23.609Z,2.15
2022-10-17T02:03:51.439Z,2.20
2022-10-17T02:06:18.049Z,2.05
2022-10-17T02:08:47.685Z,2.20
2022-10-17T02:11:20.964Z,2.10
2022-10-17T02:17:11.659Z,1.88
2022-10-17T02:19:50.314Z,2.22
2022-10-17T02:22:51.866Z,2.28
2022-10-17T02:25:47.803Z,1.80
2022-10-17T02:28:23.719Z,2.17
2022-10-17T02:30:58.251Z,2.25
2022-10-17T02:33:39.284Z,2.00
2022-10-17T02:36:15.094Z,2.08
2022-10-17T02:38:43.460Z,2.40
2022-10-17T02:41:16.194Z,2.08
2022-10-17T02:43:45.410Z,1.75
2022-10-17T02:46:20.837Z,2.05
2022-10-17T02:48:55.274Z,2.00
2022-10-17T02:51:32.748Z,1.85
2022-10-17T02:54:22.800Z,2.33
2022-10-17T02:56:59.020Z,2.13
2022-10-17T02:59:28.290Z,2.42
2022-10-17T03:01:55.293Z,1.67
2022-10-17T03:04:21.923Z,1.85
2022-10-17T03:06:49.448Z,2.10
2022-10-17T03:09:16.404Z,2.40
2022-10-17T03:11:43.051Z,2.20
2022-10-17T03:14:09.901Z,2.10
2022-10-17T03:16:36.562Z,2.08
2022-10-17T03:19:04.758Z,2.15
2022-10-17T03:21:32.346Z,2.03
2022-10-17T03:23:59.292Z,1.90
2022-10-17T03:26:26.371Z,1.65
2022-10-17T03:28:54.527Z,1.90
2022-10-17T03:31:22.912Z,2.17
2022-10-17T03:33:51.115Z,2.03
2022-10-17T03:36:19.307Z,1.83
2022-10-17T03:38:47.307Z,2.20
2022-10-17T03:41:14.745Z,2.10
2022-10-17T03:43:42.138Z,1.98
2022-10-17T03:46:09.106Z,2.67
2022-10-17T03:48:36.947Z,2.30
2022-10-17T03:51:09.175Z,2.17
2022-10-17T03:53:42.159Z,2.15
2022-10-17T03:56:11.360Z,2.20
2022-10-17T03:58:38.198Z,1.65
2022-10-17T04:01:06.462Z,1.95
2022-10-17T04:03:34.002Z,1.75
2022-10-17T04:06:01.571Z,1.98
2022-10-17T04:08:29.710Z,1.92
2022-10-17T04:11:08.314Z,2.33
2022-10-17T04:13:35.612Z,2.63
2022-10-17T04:16:07.867Z,2.20
2022-10-17T04:18:38.884Z,1.92
2022-10-17T04:21:07.091Z,1.95
2022-10-17T04:23:34.465Z,2.13
2022-10-17T04:26:10.272Z,2.03
2022-10-17T04:28:37.171Z,2.10
2022-10-17T04:31:09.767Z,1.80
2022-10-17T04:33:55.343Z,2.13
2022-10-17T04:36:23.293Z,2.08
2022-10-17T04:38:50.320Z,1.98
2022-10-17T04:41:18.513Z,1.77
2022-10-17T04:43:50.091Z,1.98
2022-10-17T04:46:19.145Z,1.80
2022-10-17T04:48:46.273Z,1.92
2022-10-17T04:51:15.510Z,1.85
2022-10-17T04:54:08.139Z,2.45
2022-10-17T04:56:35.750Z,1.80
2022-10-17T04:59:02.355Z,1.63
2022-10-17T05:01:29.144Z,2.10
2022-10-17T05:03:56.359Z,2.20
2022-10-17T05:06:25.821Z,1.67
2022-10-17T05:09:10.996Z,2.13
2022-10-17T05:11:37.682Z,2.05
2022-10-17T05:14:04.543Z,1.63
2022-10-17T05:16:32.546Z,1.67
2022-10-17T05:18:59.766Z,1.83
2022-10-17T05:24:09.258Z,1.95
2022-10-17T05:26:35.932Z,1.77
2022-10-17T05:29:03.865Z,1.90
2022-10-17T05:31:32.836Z,2.25
2022-10-17T05:34:04.034Z,2.30
2022-10-17T05:36:33.094Z,1.50
2022-10-17T05:39:01.285Z,2.13
2022-10-17T05:41:28.695Z,1.90
2022-10-17T05:43:55.311Z,1.98
2022-10-17T05:46:34.313Z,2.22
2022-10-17T05:49:01.061Z,2.15
2022-10-17T05:51:27.735Z,1.67
2022-10-17T05:53:56.229Z,2.08
2022-10-17T05:56:26.643Z,1.90
2022-10-17T05:58:58.626Z,1.60
2022-10-17T06:01:37.796Z,2.17
2022-10-17T06:04:04.723Z,2.03
2022-10-17T06:06:31.585Z,2.00
2022-10-17T06:08:58.266Z,2.72
2022-10-17T06:11:31.137Z,2.53
2022-10-17T06:13:59.188Z,2.13
2022-10-17T06:16:28.100Z,1.92
2022-10-17T06:18:54.812Z,2.00
2022-10-17T06:21:24.392Z,2.30
2022-10-17T06:23:53.593Z,1.45
2022-10-17T06:26:30.867Z,1.63
2022-10-17T06:28:58.056Z,2.20
2022-10-17T06:31:27.158Z,1.90
2022-10-17T06:33:53.718Z,2.50
2022-10-17T06:36:20.566Z,1.95
2022-10-17T06:38:48.362Z,2.20
2022-10-17T06:41:23.776Z,1.70
2022-10-17T06:43:52.719Z,2.25
2022-10-17T06:46:45.537Z,2.03
2022-10-17T06:49:15.551Z,2.15
2022-10-17T06:54:22.213Z,2.00
2022-10-17T06:57:07.711Z,1.90
2022-10-17T07:00:13.869Z,2.00
2022-10-17T07:02:45.844Z,2.00
2022-10-17T07:05:12.533Z,2.58
2022-10-17T07:07:43.049Z,1.95
2022-10-17T07:10:11.819Z,2.20
2022-10-17T07:12:39.999Z,1.73
2022-10-17T07:15:07.080Z,1.88
2022-10-17T07:17:34.384Z,2.10
2022-10-17T07:20:01.720Z,2.22
2022-10-17T07:22:31.041Z,1.98
2022-10-17T07:24:58.487Z,2.03
2022-10-17T07:27:29.763Z,2.10
2022-10-17T07:29:56.524Z,2.20
2022-10-17T07:32:32.487Z,2.08
2022-10-17T07:34:59.373Z,1.50
2022-10-17T07:37:25.959Z,1.90
2022-10-17T07:39:56.535Z,2.45
2022-10-17T07:42:23.794Z,2.40
2022-10-17T07:44:51.056Z,1.65
2022-10-17T07:47:17.712Z,1.77
2022-10-17T07:49:45.934Z,1.75
2022-10-17T07:52:16.584Z,1.70
2022-10-17T07:54:43.967Z,2.45
2022-10-17T07:57:10.550Z,2.03
2022-10-17T07:59:38.336Z,1.92
2022-10-17T08:02:05.391Z,1.85
2022-10-17T08:04:32.097Z,2.05
2022-10-17T08:07:11.329Z,1.90
2022-10-17T08:09:46.297Z,2.00
2022-10-17T08:12:14.848Z,1.77
2022-10-17T08:14:42.333Z,2.00
2022-10-17T08:17:09.525Z,1.98
2022-10-17T08:19:40.402Z,1.92
2022-10-17T08:22:08.049Z,1.65
2022-10-17T08:24:34.883Z,1.65
2022-10-17T08:27:01.635Z,2.17
2022-10-17T08:29:28.355Z,2.05
2022-10-17T08:32:00.998Z,2.00
2022-10-17T08:34:29.327Z,1.80
2022-10-17T08:36:55.956Z,1.90
2022-10-17T08:39:22.622Z,1.73
2022-10-17T08:42:05.733Z,2.30
2022-10-17T08:44:49.804Z,1.48
2022-10-17T08:47:23.987Z,2.05
2022-10-17T08:50:00.792Z,1.60
2022-10-17T08:52:37.908Z,1.67
2022-10-17T08:55:15.350Z,1.42
2022-10-17T08:57:43.034Z,2.13
2022-10-17T09:00:20.035Z,1.17
2022-10-17T09:03:11.450Z,1.63
2022-10-17T09:06:18.215Z,1.55
2022-10-17T09:08:50.901Z,1.55
2022-10-17T09:11:39.522Z,1.75
2022-10-17T09:14:24.667Z,2.00
2022-10-17T09:17:18.975Z,1.40
2022-10-17T09:20:00.167Z,1.80
2022-10-17T09:22:34.372Z,1.58
2022-10-17T09:25:06.800Z,1.38
2022-10-17T09:27:42.265Z,1.60
2022-10-17T09:30:45.123Z,1.80
2022-10-17T09:33:42.400Z,1.50
2022-10-17T09:36:19.384Z,1.48
2022-10-17T09:38:52.398Z,1.45
2022-10-17T09:41:46.449Z,1.58
2022-10-17T09:44:29.496Z,1.63
2022-10-17T09:47:06.259Z,2.00
2022-10-17T09:49:37.753Z,1.58
2022-10-17T09:52:11.597Z,1.20
2022-10-17T09:54:48.047Z,1.75
2022-10-17T09:57:16.380Z,1.50
2022-10-17T10:00:05.790Z,1.23
2022-10-17T10:02:40.864Z,1.70
2022-10-17T10:05:19.881Z,1.80
2022-10-17T10:08:21.508Z,1.30
2022-10-17T10:10:58.474Z,2.00
2022-10-17T10:13:26.721Z,1.63
2022-10-17T10:15:53.617Z,1.38
2022-10-17T10:18:26.281Z,1.45
2022-10-17T10:21:14.199Z,1.40
2022-10-17T10:23:43.791Z,1.42
2022-10-17T10:26:24.386Z,2.08
2022-10-17T10:28:57.485Z,1.90
2022-10-17T10:31:33.894Z,1.38
2022-10-17T10:34:04.873Z,1.63
2022-10-17T10:36:52.082Z,1.60
2022-10-17T10:39:42.821Z,1.45
2022-10-17T10:42:21.554Z,1.23
2022-10-17T10:44:50.200Z,1.45
2022-10-17T10:47:28.532Z,2.03
2022-10-17T10:50:17.538Z,1.50
2022-10-17T10:53:12.161Z,1.52
2022-10-17T10:56:00.733Z,1.73
2022-10-17T10:58:30.377Z,1.45
2022-10-17T11:01:00.757Z,1.58
2022-10-17T11:03:35.895Z,1.52
2022-10-17T11:06:12.368Z,1.50
2022-10-17T11:08:45.782Z,2.30
2022-10-17T11:11:25.533Z,1.63
2022-10-17T11:14:19.551Z,1.52
2022-10-17T11:17:10.369Z,1.88
2022-10-17T11:19:44.585Z,1.70
2022-10-17T11:22:26.583Z,1.58
2022-10-17T11:25:25.447Z,2.00
2022-10-17T11:30:18.795Z,2.00
2022-10-17T11:32:59.235Z,1.77
2022-10-17T11:35:55.324Z,1.83
2022-10-17T11:38:41.825Z,1.77
2022-10-17T11:41:15.264Z,1.90
2022-10-17T11:44:07.541Z,1.40
2022-10-17T11:46:37.205Z,2.00
2022-10-17T11:49:20.676Z,1.58
2022-10-17T11:52:07.295Z,1.73
2022-10-17T11:54:50.747Z,1.88
2022-10-17T11:57:48.999Z,1.98
2022-10-17T12:00:41.738Z,1.60
2022-10-17T12:03:31.241Z,1.55
2022-10-17T12:06:03.474Z,1.73
2022-10-17T12:08:46.989Z,2.10
2022-10-17T12:11:34.664Z,1.98
2022-10-17T12:14:05.755Z,1.95
2022-10-17T12:16:33.798Z,1.98
2022-10-17T12:19:00.338Z,1.73
2022-10-17T12:21:31.317Z,1.58
2022-10-17T12:23:58.869Z,1.52
2022-10-17T12:26:28.462Z,2.05
2022-10-17T12:28:57.195Z,1.88
2022-10-17T12:31:29.624Z,2.05
2022-10-17T12:34:02.891Z,1.92
2022-10-17T12:36:29.523Z,1.88
2022-10-17T12:39:01.985Z,1.58
2022-10-17T12:41:41.269Z,1.98
2022-10-17T12:44:13.893Z,2.20
2022-10-17T12:46:44.132Z,2.22
2022-10-17T12:49:37.071Z,1.77
2022-10-17T12:52:55.831Z,2.00
2022-10-17T12:55:25.655Z,1.60
2022-10-17T12:58:12.727Z,1.83
2022-10-17T13:01:23.816Z,2.58
2022-10-17T13:03:46.496Z,2.35
2022-10-17T13:06:22.078Z,1.90
2022-10-17T13:08:56.197Z,2.70
2022-10-17T13:11:28.934Z,1.95
2022-10-17T13:13:58.877Z,1.63
2022-10-17T13:16:34.551Z,1.95
2022-10-17T13:19:04.012Z,2.03
2022-10-17T13:21:31.626Z,1.38
2022-10-17T13:23:58.235Z,1.88
2022-10-17T13:26:28.411Z,2.03
2022-10-17T13:29:05.609Z,1.73
2022-10-17T13:31:35.597Z,1.73
2022-10-17T13:34:14.912Z,1.95
2022-10-17T13:36:47.957Z,2.03
2022-10-17T13:39:23.053Z,1.83
2022-10-17T13:41:59.636Z,2.25
2022-10-17T13:44:31.983Z,1.95
2022-10-17T13:46:58.753Z,2.05
2022-10-17T13:49:36.893Z,1.70
2022-10-17T13:52:06.249Z,2.50
2022-10-17T13:54:40.287Z,1.90
2022-10-17T13:57:21.424Z,1.73
2022-10-17T14:00:12.437Z,1.25
2022-10-17T14:02:40.984Z,2.35
2022-10-17T14:05:23.124Z,2.05
2022-10-17T14:10:42.375Z,1.52
2022-10-17T14:13:23.835Z,1.67
2022-10-17T14:15:52.689Z,1.85
2022-10-17T14:18:36.120Z,2.17
2022-10-17T14:23:53.325Z,1.80
2022-10-17T14:26:23.804Z,2.17
2022-10-17T14:29:21.736Z,1.95
2022-10-17T14:31:50.653Z,1.90
2022-10-17T14:34:23.860Z,2.10
2022-10-17T14:36:53.081Z,1.70
2022-10-17T14:39:23.447Z,1.92
2022-10-17T14:41:51.802Z,1.67
2022-10-17T14:44:31.472Z,2.05
2022-10-17T14:47:05.954Z,1.58
2022-10-17T14:49:39.845Z,1.63
2022-10-17T14:52:15.238Z,1.58
2022-10-17T14:54:49.076Z,1.70
2022-10-17T14:57:26.936Z,2.00
2022-10-17T14:59:56.170Z,1.80
2022-10-17T15:02:27.841Z,1.65
2022-10-17T15:04:54.893Z,1.80
2022-10-17T15:07:22.213Z,1.58
2022-10-17T15:09:50.765Z,1.60
2022-10-17T15:12:19.865Z,1.52
2022-10-17T15:14:48.414Z,1.63
2022-10-17T15:17:18.864Z,1.80
2022-10-17T15:19:45.533Z,1.98
2022-10-17T15:22:12.292Z,2.00
2022-10-17T15:24:39.202Z,2.17
2022-10-17T15:27:17.560Z,1.90
2022-10-17T15:29:45.068Z,2.15
2022-10-17T15:32:12.227Z,1.70
2022-10-17T15:34:39.526Z,1.83
2022-10-17T15:37:10.811Z,2.50
2022-10-17T15:39:37.516Z,2.47
2022-10-17T15:42:09.085Z,2.10
2022-10-17T15:44:36.571Z,1.88
2022-10-17T15:47:03.549Z,1.88
2022-10-17T15:49:30.197Z,1.70
2022-10-17T15:51:56.882Z,1.70
2022-10-17T15:54:23.479Z,1.70
2022-10-17T15:56:54.580Z,1.88
2022-10-17T15:59:29.827Z,1.77
2022-10-17T16:01:56.464Z,1.70
2022-10-17T16:04:26.649Z,1.73
2022-10-17T16:06:53.363Z,1.65
2022-10-17T16:09:20.124Z,1.58
2022-10-17T16:11:46.886Z,2.13
2022-10-17T16:14:15.836Z,1.65
2022-10-17T16:16:42.948Z,1.60
2022-10-17T16:19:09.839Z,1.77
2022-10-17T16:21:39.255Z,2.50
2022-10-17T16:24:07.045Z,1.45
2022-10-17T16:26:33.631Z,1.70
2022-10-17T16:29:04.691Z,1.75
2022-10-17T16:31:34.854Z,1.75
2022-10-17T16:34:03.836Z,1.58
2022-10-17T16:36:30.475Z,1.63
2022-10-17T16:38:57.106Z,1.65
2022-10-17T16:41:36.564Z,1.98
2022-10-17T16:44:06.102Z,1.65
2022-10-17T16:46:34.032Z,1.80
2022-10-17T16:49:00.665Z,1.83
2022-10-17T16:51:29.058Z,2.15
2022-10-17T16:53:56.975Z,2.05
2022-10-17T16:56:24.746Z,1.80
2022-10-17T16:58:51.822Z,2.28
2022-10-17T17:01:23.167Z,2.22
2022-10-17T17:03:51.397Z,1.92
2022-10-17T17:06:24.214Z,2.15
2022-10-17T17:08:51.409Z,1.95
2022-10-17T17:11:20.445Z,2.67
2022-10-17T17:13:47.986Z,1.98
2022-10-17T17:16:21.514Z,2.25
2022-10-17T17:18:53.986Z,2.03
2022-10-17T17:21:20.660Z,2.17
2022-10-17T17:23:47.397Z,2.25
2022-10-17T17:26:17.635Z,2.28
2022-10-17T17:28:45.653Z,2.55
2022-10-17T17:31:15.511Z,2.47
2022-10-17T17:33:42.836Z,2.55
2022-10-17T17:36:13.958Z,2.33
2022-10-17T17:38:41.274Z,2.78
2022-10-17T17:41:07.871Z,2.72
2022-10-17T17:43:35.738Z,2.40
2022-10-17T17:46:02.490Z,2.42
2022-10-17T17:48:29.669Z,2.38
2022-10-17T17:50:56.666Z,3.40
2022-10-17T17:53:23.976Z,3.30
2022-10-17T17:56:01.744Z,2.90
2022-10-17T17:58:28.537Z,3.60
2022-10-17T18:00:55.525Z,2.67
2022-10-17T18:03:22.285Z,2.30
2022-10-17T18:05:48.944Z,2.20
2022-10-17T18:08:15.849Z,2.30
2022-10-17T18:10:47.828Z,2.72
2022-10-17T18:13:14.698Z,2.45
2022-10-17T18:15:42.657Z,2.30
2022-10-17T18:18:09.872Z,2.30
2022-10-17T18:20:43.420Z,2.03
2022-10-17T18:23:11.214Z,2.13
2022-10-17T18:25:37.940Z,1.88
2022-10-17T18:28:05.079Z,2.58
2022-10-17T18:30:34.411Z,2.50
2022-10-17T18:33:01.437Z,2.45
2022-10-17T18:35:28.087Z,2.42
2022-10-17T18:37:56.903Z,2.72
2022-10-17T18:40:23.605Z,2.55
2022-10-17T18:42:50.374Z,2.42
2022-10-17T18:45:17.404Z,2.10
2022-10-17T18:47:47.229Z,2.28
2022-10-17T18:50:14.689Z,2.40
2022-10-17T18:52:41.408Z,2.42
2022-10-17T18:55:08.562Z,2.40
2022-10-17T18:57:35.274Z,2.55
2022-10-17T19:00:01.943Z,2.58
2022-10-17T19:02:28.510Z,2.75
2022-10-17T19:04:55.077Z,2.72
2022-10-17T19:07:21.735Z,2.58
2022-10-17T19:09:48.561Z,2.38
2022-10-17T19:12:15.603Z,2.42
2022-10-17T19:14:42.211Z,2.22
2022-10-17T19:17:08.752Z,2.60
2022-10-17T19:19:36.021Z,2.50
2022-10-17T19:22:03.430Z,2.05
2022-10-17T19:24:30.469Z,2.63
2022-10-17T19:27:02.448Z,2.67
2022-10-17T19:29:31.689Z,2.85
2022-10-17T19:31:58.932Z,2.38
2022-10-17T19:34:27.607Z,2.50
2022-10-17T19:36:55.685Z,2.65
2022-10-17T19:39:23.812Z,2.97
2022-10-17T19:41:50.455Z,2.78
2022-10-17T19:44:17.482Z,2.30
2022-10-17T19:46:46.550Z,2.30
2022-10-17T19:49:13.607Z,2.47
2022-10-17T19:51:40.665Z,2.40
2022-10-17T19:54:07.850Z,2.90
2022-10-17T19:56:38.111Z,2.70
2022-10-17T19:59:06.253Z,2.53
2022-10-17T20:01:38.555Z,2.80
2022-10-17T20:04:06.158Z,2.85
2022-10-17T20:06:33.612Z,2.58
2022-10-17T20:09:00.305Z,2.80
2022-10-17T20:11:28.597Z,2.45
2022-10-17T20:13:56.501Z,2.45
2022-10-17T20:16:27.050Z,3.03
2022-10-17T20:18:55.814Z,2.72
2022-10-17T20:21:27.364Z,3.00
2022-10-17T20:23:54.769Z,2.08
2022-10-17T20:26:33.668Z,3.30
2022-10-17T20:29:08.724Z,2.30
2022-10-17T20:31:35.787Z,2.60
2022-10-17T20:34:03.347Z,2.50
2022-10-17T20:36:30.132Z,2.83
2022-10-17T20:38:58.021Z,3.08
2022-10-17T20:41:26.510Z,3.08
2022-10-17T20:43:55.289Z,3.33
2022-10-17T20:46:36.236Z,2.88
2022-10-17T20:49:05.619Z,3.70
2022-10-17T20:51:32.523Z,2.95
2022-10-17T20:53:59.437Z,2.35
2022-10-17T20:56:29.207Z,2.25
2022-10-17T20:58:58.296Z,2.80
2022-10-17T21:01:26.029Z,2.90
2022-10-17T21:03:53.025Z,2.40
2022-10-17T21:06:20.485Z,2.50
2022-10-17T21:08:48.599Z,2.17
2022-10-17T21:11:17.636Z,3.08
2022-10-17T21:13:45.322Z,2.35
2022-10-17T21:16:14.509Z,2.05
2022-10-17T21:18:42.457Z,1.85
2022-10-17T21:21:11.839Z,2.30
2022-10-17T21:23:39.605Z,2.25
2022-10-17T21:26:08.792Z,2.25
2022-10-17T21:28:37.191Z,1.63
2022-10-17T21:31:24.891Z,2.17
2022-10-17T21:33:55.337Z,2.28
2022-10-17T21:36:23.654Z,1.65
2022-10-17T21:38:52.364Z,1.80
2022-10-17T21:41:20.749Z,2.40
2022-10-17T21:43:48.082Z,1.70
2022-10-17T21:46:17.434Z,1.73
2022-10-17T21:48:45.679Z,2.25
2022-10-17T21:51:14.936Z,1.50
2022-10-17T21:53:42.123Z,1.52
2022-10-17T21:56:15.549Z,2.10
2022-10-17T21:58:42.729Z,2.33
2022-10-17T22:01:19.426Z,1.90
2022-10-17T22:03:49.161Z,1.88
2022-10-17T22:06:38.577Z,1.77
2022-10-17T22:09:08.299Z,1.88
2022-10-17T22:11:35.526Z,1.73
2022-10-17T22:14:04.654Z,1.48
2022-10-17T22:16:31.864Z,1.75
2022-10-17T22:19:03.293Z,2.03
2022-10-17T22:21:33.513Z,1.65
2022-10-17T22:24:02.993Z,1.73
2022-10-17T22:26:31.307Z,1.52
2022-10-17T22:28:58.171Z,1.67
2022-10-17T22:31:25.188Z,1.75
2022-10-17T22:33:51.937Z,1.48
2022-10-17T22:36:18.911Z,1.75
2022-10-17T22:38:45.982Z,1.70
2022-10-17T22:41:12.567Z,1.50
2022-10-17T22:43:40.126Z,1.48
2022-10-17T22:46:07.894Z,1.63
2022-10-17T22:48:36.830Z,2.10
2022-10-17T22:51:03.445Z,1.73
2022-10-17T22:53:30.125Z,1.73
2022-10-17T22:56:03.234Z,1.30
2022-10-17T22:58:31.751Z,1.77
2022-10-17T23:00:58.731Z,1.50
2022-10-17T23:03:27.553Z,1.23
2022-10-17T23:05:54.997Z,1.63
2022-10-17T23:08:21.679Z,1.50
2022-10-17T23:10:48.922Z,1.55
2022-10-17T23:13:16.269Z,1.25
2022-10-17T23:15:43.290Z,1.70
2022-10-17T23:18:10.296Z,1.50
2022-10-17T23:20:37.977Z,1.20
2022-10-17T23:23:05.082Z,1.80
2022-10-17T23:25:33.686Z,1.85
2022-10-17T23:28:01.001Z,1.70
2022-10-17T23:30:28.776Z,1.77
2022-10-17T23:32:55.337Z,1.42
2022-10-17T23:35:22.130Z,1.27
2022-10-17T23:37:48.779Z,1.40
2022-10-17T23:40:15.969Z,1.75
2022-10-17T23:42:42.662Z,1.45
2022-10-17T23:45:09.744Z,1.60
2022-10-17T23:47:37.256Z,1.10
2022-10-17T23:50:05.114Z,1.98
2022-10-17T23:52:32.033Z,1.52
2022-10-17T23:54:58.764Z,1.88
2022-10-17T23:57:25.393Z,1.83
2022-10-17T23:59:52.394Z,1.60
